Time;durP1;ratioP1;P1;durP2;ratioP2;P2;SDS_P1;SDS_P2;PMS_P1;PMS_P2;Temp;Humidity;BMP_temperature;BMP_pressure;BME280_temperature;BME280_humidity;BME280_pressure;Samples;Min_cycle;Max_cycle;Signal;HPM_P1;HPM_P2
2021/07/26 00:00:43;;;;;;;8.98;5.10;;;20.60;99.90;;;;;;5061574;28;20179;-80
2021/07/26 00:03:09;;;;;;;9.70;5.18;;;20.60;99.90;;;;;;5079678;28;20209;-77
2021/07/26 00:05:34;;;;;;;9.63;4.53;;;20.50;99.90;;;;;;5046477;28;20171;-79
2021/07/26 00:08:00;;;;;;;11.63;5.25;;;20.30;99.90;;;;;;5078324;28;20636;-78
2021/07/26 00:10:27;;;;;;;7.35;4.93;;;20.20;99.90;;;;;;5099479;28;20190;-78
2021/07/26 00:12:52;;;;;;;6.05;4.75;;;20.30;99.90;;;;;;5099816;28;20193;-77
2021/07/26 00:15:18;;;;;;;12.02;4.78;;;20.20;99.90;;;;;;5079910;28;20201;-78
2021/07/26 00:17:43;;;;;;;4.55;4.15;;;20.20;99.90;;;;;;5098651;28;20170;-78
2021/07/26 00:20:12;;;;;;;6.47;4.95;;;20.10;99.90;;;;;;5065241;28;20508;-78
2021/07/26 00:22:38;;;;;;;5.10;4.22;;;20.00;99.90;;;;;;5078432;28;20179;-77
2021/07/26 00:25:08;;;;;;;4.43;3.95;;;20.00;99.90;;;;;;5044204;28;20170;-78
2021/07/26 00:27:34;;;;;;;5.30;4.80;;;19.90;99.90;;;;;;5077954;28;20624;-77
2021/07/26 00:30:00;;;;;;;8.18;4.63;;;19.90;99.90;;;;;;5096330;28;20208;-79
2021/07/26 00:32:29;;;;;;;5.22;4.78;;;19.80;99.90;;;;;;5096448;28;20212;-78
2021/07/26 00:34:56;;;;;;;10.82;4.47;;;19.80;99.90;;;;;;5078693;28;20198;-78
2021/07/26 00:37:26;;;;;;;8.88;5.00;;;19.80;99.90;;;;;;5069674;28;20174;-77
2021/07/26 00:39:52;;;;;;;5.55;5.05;;;19.80;99.90;;;;;;5078029;28;20250;-78
2021/07/26 00:42:18;;;;;;;9.50;5.40;;;19.80;99.90;;;;;;5096155;28;20166;-77
2021/07/26 00:44:44;;;;;;;6.22;5.32;;;19.90;99.90;;;;;;5096339;28;20172;-77
2021/07/26 00:47:09;;;;;;;11.55;5.25;;;19.90;99.90;;;;;;5085737;28;20170;-77
2021/07/26 00:49:35;;;;;;;8.40;5.25;;;19.90;99.90;;;;;;5075894;28;20631;-77
2021/07/26 00:52:02;;;;;;;10.00;4.80;;;20.00;99.90;;;;;;5057921;28;20264;-79
2021/07/26 00:54:30;;;;;;;13.45;5.60;;;19.90;99.90;;;;;;5075611;28;20220;-78
2021/07/26 00:56:59;;;;;;;10.60;5.03;;;19.80;99.90;;;;;;5082828;28;20195;-78
2021/07/26 00:59:25;;;;;;;14.07;5.28;;;19.80;99.90;;;;;;5095959;28;20235;-79
2021/07/26 01:01:51;;;;;;;6.60;4.65;;;19.70;99.90;;;;;;5095132;28;20181;-77
2021/07/26 01:04:17;;;;;;;11.45;5.20;;;19.60;99.90;;;;;;5094106;28;20181;-77
2021/07/26 01:06:44;;;;;;;6.57;5.45;;;19.60;99.90;;;;;;5060754;28;20589;-77
2021/07/26 01:09:10;;;;;;;10.27;5.03;;;19.50;99.90;;;;;;5095713;28;20176;-77
2021/07/26 01:11:36;;;;;;;10.20;4.63;;;19.50;99.90;;;;;;5059100;28;20572;-77
2021/07/26 01:14:02;;;;;;;9.30;5.03;;;19.40;99.90;;;;;;5069154;28;20199;-79
2021/07/26 01:16:29;;;;;;;7.68;4.80;;;19.40;99.90;;;;;;5058859;28;20216;-78
2021/07/26 01:18:54;;;;;;;7.82;5.15;;;19.40;99.90;;;;;;5095527;28;20162;-77
2021/07/26 01:21:20;;;;;;;21.77;6.82;;;19.30;99.90;;;;;;5077482;28;20168;-77
2021/07/26 01:23:48;;;;;;;6.68;5.28;;;19.40;99.90;;;;;;5059418;28;20530;-85
2021/07/26 01:26:16;;;;;;;7.80;5.10;;;19.40;99.90;;;;;;5075431;28;20601;-78
2021/07/26 01:28:48;;;;;;;5.90;5.45;;;19.40;99.90;;;;;;5094901;28;20170;-78
2021/07/26 01:31:14;;;;;;;11.68;5.57;;;19.40;99.90;;;;;;5083269;28;20238;-79
2021/07/26 01:33:42;;;;;;;25.80;5.25;;;19.40;99.90;;;;;;5089471;28;20274;-78
2021/07/26 01:36:08;;;;;;;11.70;5.50;;;19.30;99.90;;;;;;5093473;28;20256;-77
2021/07/26 01:38:34;;;;;;;8.35;5.22;;;19.30;99.90;;;;;;5075928;28;20651;-77
2021/07/26 01:41:35;;;;;;;11.63;5.03;;;19.30;99.90;;;;;;5075069;28;20541;-78
2021/07/26 01:44:04;;;;;;;11.93;4.82;;;19.30;99.90;;;;;;5089208;28;20624;-77
2021/07/26 01:46:57;;;;;;;8.70;4.80;;;19.30;99.90;;;;;;5091865;28;20162;-78
2021/07/26 01:49:50;;;;;;;8.75;5.10;;;19.20;99.90;;;;;;5074345;28;20154;-78
2021/07/26 01:52:17;;;;;;;6.93;5.53;;;19.20;99.90;;;;;;5061501;28;20618;-78
2021/07/26 01:54:42;;;;;;;6.13;5.32;;;19.10;99.90;;;;;;5094716;28;20194;-78
2021/07/26 01:57:08;;;;;;;6.97;5.30;;;19.10;99.90;;;;;;5091112;28;20620;-77
2021/07/26 01:59:35;;;;;;;6.35;4.53;;;19.10;99.90;;;;;;5094284;28;20174;-78
2021/07/26 02:02:01;;;;;;;7.97;5.05;;;19.20;99.90;;;;;;5091847;28;20170;-78
2021/07/26 02:04:26;;;;;;;10.45;4.78;;;19.10;99.90;;;;;;5074279;28;20513;-77
2021/07/26 02:06:52;;;;;;;8.30;4.60;;;19.10;99.90;;;;;;5074673;28;20171;-78
2021/07/26 02:09:17;;;;;;;10.00;4.88;;;19.10;99.90;;;;;;5039685;28;20508;-78
2021/07/26 02:11:43;;;;;;;12.32;5.18;;;19.00;99.90;;;;;;5056414;28;20171;-78
2021/07/26 02:14:09;;;;;;;11.73;6.32;;;18.90;99.90;;;;;;5075176;28;20237;-78
2021/07/26 02:16:36;;;;;;;6.00;4.60;;;19.00;99.90;;;;;;5074347;28;20167;-78
2021/07/26 02:19:03;;;;;;;8.75;4.68;;;19.00;99.90;;;;;;5090492;28;20174;-78
2021/07/26 02:21:29;;;;;;;6.35;5.30;;;19.00;99.90;;;;;;5094161;28;20166;-78
2021/07/26 02:23:55;;;;;;;11.30;4.80;;;18.90;99.90;;;;;;5075885;28;20190;-78
2021/07/26 02:26:20;;;;;;;8.98;5.03;;;18.90;99.90;;;;;;5073945;28;20170;-78
2021/07/26 02:28:46;;;;;;;16.73;5.90;;;18.90;99.90;;;;;;5091044;28;20170;-78
2021/07/26 02:31:11;;;;;;;19.92;5.43;;;19.00;99.90;;;;;;5085583;28;20166;-78
2021/07/26 02:33:37;;;;;;;10.90;5.53;;;19.00;99.90;;;;;;5093708;28;20204;-78
2021/07/26 02:36:03;;;;;;;10.98;5.53;;;18.90;99.90;;;;;;5075831;28;20186;-77
2021/07/26 02:38:28;;;;;;;6.85;5.05;;;19.00;99.90;;;;;;5057302;28;20549;-78
2021/07/26 02:40:54;;;;;;;17.00;5.45;;;19.00;99.90;;;;;;5093988;28;20245;-78
2021/07/26 02:43:20;;;;;;;15.95;5.82;;;18.90;99.90;;;;;;5086651;28;20184;-78
2021/07/26 02:45:47;;;;;;;9.95;4.65;;;18.80;99.90;;;;;;5058552;28;20543;-77
2021/07/26 02:48:13;;;;;;;7.28;4.65;;;18.80;99.90;;;;;;5059259;28;20192;-77
2021/07/26 02:50:38;;;;;;;6.00;4.60;;;18.70;99.90;;;;;;5074366;28;20624;-77
2021/07/26 02:53:04;;;;;;;19.48;6.03;;;18.70;99.90;;;;;;5086187;28;20198;-78
2021/07/26 02:55:30;;;;;;;8.23;5.05;;;18.70;99.90;;;;;;5093451;28;20205;-78
2021/07/26 02:57:58;;;;;;;13.45;4.90;;;18.60;99.90;;;;;;5094064;28;20567;-77
2021/07/26 03:00:24;;;;;;;7.50;4.75;;;18.60;99.90;;;;;;5092128;28;20555;-78
2021/07/26 03:02:51;;;;;;;9.20;5.18;;;18.50;99.90;;;;;;5084980;28;20590;-78
2021/07/26 03:05:16;;;;;;;13.05;5.60;;;18.60;99.90;;;;;;5073538;28;20609;-77
2021/07/26 03:07:42;;;;;;;13.30;5.43;;;18.50;99.90;;;;;;5073486;28;20177;-79
2021/07/26 03:10:08;;;;;;;9.68;4.50;;;18.50;99.90;;;;;;5073486;28;20254;-78
2021/07/26 03:12:34;;;;;;;10.57;5.00;;;18.50;99.90;;;;;;5061397;28;20170;-78
2021/07/26 03:14:59;;;;;;;7.50;4.43;;;18.50;99.90;;;;;;5075487;28;20250;-78
2021/07/26 03:17:25;;;;;;;9.68;5.30;;;18.50;99.90;;;;;;5093451;28;20178;-78
2021/07/26 03:19:55;;;;;;;8.60;4.95;;;18.60;99.90;;;;;;5093267;28;20166;-78
2021/07/26 03:22:51;;;;;;;18.77;5.05;;;18.60;99.90;;;;;;5063949;28;20177;-79
2021/07/26 03:25:17;;;;;;;16.38;4.78;;;18.70;99.90;;;;;;5073292;28;20205;-78
2021/07/26 03:27:43;;;;;;;9.15;5.55;;;18.70;99.90;;;;;;5073261;28;20167;-78
2021/07/26 03:30:11;;;;;;;11.70;5.40;;;18.70;99.90;;;;;;5038207;28;20183;-78
2021/07/26 03:32:36;;;;;;;7.55;4.70;;;18.80;99.90;;;;;;5058082;28;20249;-77
2021/07/26 03:35:03;;;;;;;19.27;5.82;;;18.90;99.90;;;;;;5055209;28;20838;-78
2021/07/26 03:37:29;;;;;;;26.92;7.53;;;18.90;99.90;;;;;;5072846;28;20171;-77
2021/07/26 03:39:54;;;;;;;15.00;6.97;;;18.90;99.90;;;;;;5072807;28;20289;-79
2021/07/26 03:42:20;;;;;;;16.52;6.38;;;19.10;99.90;;;;;;5056524;28;20170;-80
2021/07/26 03:44:46;;;;;;;11.43;6.55;;;19.10;99.90;;;;;;5072720;28;20166;-78
2021/07/26 03:47:11;;;;;;;22.45;7.13;;;19.10;99.90;;;;;;5057958;28;20560;-78
2021/07/26 03:49:37;;;;;;;11.93;6.13;;;19.20;99.90;;;;;;5075128;28;20170;-78
2021/07/26 03:52:03;;;;;;;18.33;6.78;;;19.20;99.90;;;;;;5088629;28;20261;-78
2021/07/26 03:54:28;;;;;;;18.88;6.55;;;19.20;99.90;;;;;;5072968;28;20248;-78
2021/07/26 03:56:57;;;;;;;15.73;6.20;;;19.20;99.90;;;;;;5075298;28;20212;-78
2021/07/26 03:59:26;;;;;;;8.88;6.60;;;19.20;99.90;;;;;;5076493;28;20178;-78
2021/07/26 04:01:54;;;;;;;13.20;6.90;;;19.20;99.90;;;;;;5078543;28;20635;-79
2021/07/26 04:04:20;;;;;;;12.82;6.60;;;19.20;99.90;;;;;;5091642;28;20193;-78
2021/07/26 04:06:50;;;;;;;16.17;6.25;;;19.20;99.90;;;;;;5078891;28;20170;-78
2021/07/26 04:09:17;;;;;;;9.27;5.80;;;19.20;99.90;;;;;;5096860;28;20211;-78
2021/07/26 04:11:43;;;;;;;16.52;6.25;;;19.20;99.90;;;;;;5095996;28;20162;-78
2021/07/26 04:14:10;;;;;;;16.05;7.57;;;19.10;99.90;;;;;;5082951;28;20625;-78
2021/07/26 04:16:35;;;;;;;13.52;6.88;;;19.00;99.90;;;;;;5076553;28;20617;-78
2021/07/26 04:19:02;;;;;;;8.25;6.32;;;19.00;99.90;;;;;;5076440;28;20254;-78
2021/07/26 04:21:33;;;;;;;18.35;7.20;;;18.90;99.90;;;;;;5041964;28;20553;-78
2021/07/26 04:24:02;;;;;;;12.93;7.00;;;18.90;99.90;;;;;;5087754;28;20170;-78
2021/07/26 04:26:28;;;;;;;10.93;7.20;;;18.90;99.90;;;;;;5096074;28;20206;-78
2021/07/26 04:28:54;;;;;;;14.07;8.02;;;18.90;99.90;;;;;;5078208;28;20177;-78
2021/07/26 04:31:19;;;;;;;14.70;7.65;;;18.90;99.90;;;;;;5096401;28;20630;-78
2021/07/26 04:33:45;;;;;;;16.65;7.75;;;19.00;99.90;;;;;;5094329;28;20545;-79
2021/07/26 04:36:11;;;;;;;16.30;9.02;;;18.90;99.90;;;;;;5096649;28;20659;-78
2021/07/26 04:38:36;;;;;;;15.93;9.27;;;18.90;99.90;;;;;;5096246;28;20166;-78
2021/07/26 04:41:02;;;;;;;15.05;8.70;;;18.90;99.90;;;;;;5061542;28;20176;-78
2021/07/26 04:43:28;;;;;;;18.83;9.00;;;19.00;99.90;;;;;;5050067;28;20648;-78
2021/07/26 04:45:58;;;;;;;20.70;8.95;;;19.10;99.90;;;;;;5075923;28;20163;-78
2021/07/26 04:48:24;;;;;;;23.83;10.15;;;19.30;99.90;;;;;;5058034;28;20248;-79
2021/07/26 04:50:50;;;;;;;14.57;8.95;;;19.40;99.90;;;;;;5076031;28;20612;-78
2021/07/26 04:53:15;;;;;;;22.90;8.82;;;19.70;99.90;;;;;;5083839;28;20175;-78
2021/07/26 04:55:41;;;;;;;14.57;8.25;;;19.70;99.90;;;;;;5075945;28;20612;-78
2021/07/26 04:58:07;;;;;;;11.48;8.38;;;19.90;99.90;;;;;;5075884;28;20191;-78
2021/07/26 05:00:33;;;;;;;9.05;6.90;;;19.90;99.90;;;;;;5090280;28;20204;-78
2021/07/26 05:02:58;;;;;;;28.65;8.23;;;19.90;99.90;;;;;;5074523;28;20166;-78
2021/07/26 05:05:24;;;;;;;12.80;7.82;;;20.00;99.90;;;;;;5075577;28;20174;-78
2021/07/26 05:07:50;;;;;;;18.45;8.48;;;20.00;99.90;;;;;;5074856;28;20245;-78
2021/07/26 05:10:16;;;;;;;21.85;8.02;;;20.00;99.90;;;;;;5057531;28;20173;-78
2021/07/26 05:12:42;;;;;;;13.68;7.28;;;20.00;99.90;;;;;;5076515;28;20202;-78
2021/07/26 05:15:09;;;;;;;14.95;7.85;;;20.00;99.90;;;;;;5094065;28;20284;-78
2021/07/26 05:17:34;;;;;;;8.45;6.47;;;20.10;99.90;;;;;;5095169;28;20500;-79
2021/07/26 05:20:00;;;;;;;17.75;7.65;;;20.20;99.90;;;;;;5060695;28;20267;-78
2021/07/26 05:22:26;;;;;;;11.90;6.70;;;20.30;99.90;;;;;;5093602;28;20171;-78
2021/07/26 05:24:51;;;;;;;14.02;7.72;;;20.30;99.90;;;;;;5078475;28;20202;-78
2021/07/26 05:27:17;;;;;;;9.75;6.13;;;20.30;99.90;;;;;;5057236;28;20177;-78
2021/07/26 05:29:43;;;;;;;12.93;6.85;;;20.40;99.90;;;;;;5057174;28;20195;-78
2021/07/26 05:32:09;;;;;;;10.45;6.13;;;20.40;99.90;;;;;;5058240;28;20171;-78
2021/07/26 05:34:35;;;;;;;7.18;5.75;;;20.50;99.90;;;;;;5070661;28;20212;-79
2021/07/26 05:37:01;;;;;;;6.45;5.55;;;20.60;99.90;;;;;;5095030;28;20158;-78
2021/07/26 05:39:29;;;;;;;21.90;7.88;;;20.60;99.90;;;;;;5094821;28;20168;-78
2021/07/26 05:41:59;;;;;;;11.02;6.38;;;20.60;99.90;;;;;;5071455;28;20169;-79
2021/07/26 05:44:25;;;;;;;20.98;6.90;;;20.60;99.90;;;;;;5087068;28;20195;-79
2021/07/26 05:46:51;;;;;;;12.55;6.47;;;20.50;99.90;;;;;;5094543;28;20596;-79
2021/07/26 05:49:17;;;;;;;12.65;6.72;;;20.60;99.90;;;;;;5094677;28;20173;-79
2021/07/26 05:51:42;;;;;;;12.27;5.60;;;20.60;99.90;;;;;;5075165;28;20189;-79
2021/07/26 05:54:09;;;;;;;11.35;6.30;;;20.60;99.90;;;;;;5076218;28;20204;-79
2021/07/26 05:56:40;;;;;;;9.88;6.53;;;20.60;99.90;;;;;;5094773;28;20158;-78
2021/07/26 05:59:06;;;;;;;15.93;6.05;;;20.70;99.90;;;;;;5072369;28;20571;-78
2021/07/26 06:01:47;;;;;;;7.32;5.60;;;20.70;99.90;;;;;;5075199;28;20163;-79
2021/07/26 06:04:24;;;;;;;8.85;5.28;;;20.60;99.90;;;;;;5056677;28;20194;-79
2021/07/26 06:06:54;;;;;;;5.38;4.32;;;20.30;99.90;;;;;;5074299;28;20167;-78
2021/07/26 06:09:24;;;;;;;4.60;4.15;;;20.10;99.90;;;;;;5074288;28;20159;-78
2021/07/26 06:11:51;;;;;;;5.30;4.80;;;19.90;99.90;;;;;;5075380;28;20554;-78
2021/07/26 06:14:17;;;;;;;5.63;4.95;;;19.70;99.90;;;;;;5057233;28;20194;-78
2021/07/26 06:16:45;;;;;;;10.68;5.40;;;19.50;99.90;;;;;;5074364;28;20170;-78
2021/07/26 06:19:11;;;;;;;6.45;5.57;;;19.50;99.90;;;;;;5073387;28;20166;-78
2021/07/26 06:21:44;;;;;;;9.68;7.28;;;19.50;99.90;;;;;;5075030;28;20162;-79
2021/07/26 06:24:11;;;;;;;9.27;8.38;;;19.60;99.90;;;;;;5061040;28;20166;-78
2021/07/26 06:26:36;;;;;;;17.33;9.55;;;19.70;99.90;;;;;;5076034;28;20200;-81
2021/07/26 06:29:03;;;;;;;15.32;9.85;;;19.70;99.90;;;;;;5075638;28;20633;-78
2021/07/26 06:31:29;;;;;;;17.77;11.23;;;19.80;99.90;;;;;;5093080;28;20219;-78
2021/07/26 06:33:55;;;;;;;17.77;11.43;;;19.90;99.90;;;;;;5056371;28;20193;-78
2021/07/26 06:36:21;;;;;;;13.52;10.93;;;19.80;99.90;;;;;;5056054;28;20163;-78
2021/07/26 06:38:46;;;;;;;18.42;12.23;;;19.80;99.90;;;;;;5055869;28;20570;-77
2021/07/26 06:41:12;;;;;;;15.07;12.20;;;19.80;99.90;;;;;;5084756;28;20202;-79
2021/07/26 06:43:37;;;;;;;19.65;13.48;;;20.00;99.90;;;;;;5076504;28;20189;-80
2021/07/26 06:46:06;;;;;;;24.67;15.52;;;19.90;99.90;;;;;;5055802;28;20697;-80
2021/07/26 06:48:33;;;;;;;21.27;16.80;;;19.70;99.90;;;;;;5073623;28;20167;-80
2021/07/26 06:50:59;;;;;;;24.85;17.05;;;19.70;99.90;;;;;;5073716;28;20167;-79
2021/07/26 06:53:25;;;;;;;29.05;17.45;;;19.60;99.90;;;;;;5074372;28;20224;-80
2021/07/26 06:55:51;;;;;;;24.20;17.63;;;19.70;99.90;;;;;;5090609;28;20638;-80
2021/07/26 06:58:17;;;;;;;29.02;17.83;;;19.70;99.90;;;;;;5075327;28;20182;-80
2021/07/26 07:00:42;;;;;;;34.38;18.17;;;19.90;99.90;;;;;;5055167;28;20597;-78
2021/07/26 07:03:08;;;;;;;29.55;18.65;;;20.00;99.90;;;;;;5077063;28;20530;-79
2021/07/26 07:05:34;;;;;;;25.02;17.58;;;20.00;99.90;;;;;;5039967;28;20174;-78
2021/07/26 07:08:01;;;;;;;29.48;17.77;;;20.00;99.90;;;;;;5091573;28;20178;-79
2021/07/26 07:10:28;;;;;;;27.83;17.42;;;19.90;99.90;;;;;;5093917;28;20172;-79
2021/07/26 07:12:54;;;;;;;24.25;17.20;;;19.90;99.90;;;;;;5074192;28;20665;-79
2021/07/26 07:15:21;;;;;;;33.80;19.33;;;19.90;99.90;;;;;;5081884;28;20195;-79
2021/07/26 07:17:50;;;;;;;28.80;18.88;;;20.00;99.90;;;;;;5073371;28;20166;-79
2021/07/26 07:20:16;;;;;;;26.85;18.05;;;20.20;99.90;;;;;;5075507;28;20182;-79
2021/07/26 07:22:42;;;;;;;27.75;16.92;;;20.50;99.90;;;;;;5080189;28;20638;-78
2021/07/26 07:25:09;;;;;;;24.33;15.50;;;21.00;99.90;;;;;;5074855;28;20186;-78
2021/07/26 07:27:34;;;;;;;20.15;14.23;;;22.10;99.90;;;;;;5058757;28;20178;-80
2021/07/26 07:30:00;;;;;;;24.33;14.07;;;23.30;99.90;;;;;;5075158;28;20178;-79
2021/07/26 07:32:26;;;;;;;15.77;13.88;;;24.10;99.90;;;;;;5056721;28;20216;-80
2021/07/26 07:34:51;;;;;;;21.90;12.63;;;24.60;99.90;;;;;;5083248;28;20194;-79
2021/07/26 07:37:17;;;;;;;23.35;13.35;;;24.50;99.90;;;;;;5046159;28;20520;-79
2021/07/26 07:39:43;;;;;;;17.00;12.70;;;24.00;99.90;;;;;;5097631;28;20166;-79
2021/07/26 07:42:09;;;;;;;26.52;13.02;;;24.10;99.90;;;;;;5097693;28;20158;-79
2021/07/26 07:44:35;;;;;;;23.08;13.00;;;24.10;99.90;;;;;;5094958;28;20200;-78
2021/07/26 07:47:01;;;;;;;19.88;13.48;;;23.90;99.90;;;;;;5077251;28;20162;-78
2021/07/26 07:49:28;;;;;;;20.58;13.88;;;23.60;99.90;;;;;;5079346;28;20166;-80
2021/07/26 07:51:54;;;;;;;21.35;14.88;;;23.30;99.90;;;;;;5061688;28;20174;-85
2021/07/26 07:54:20;;;;;;;24.02;14.68;;;22.80;99.90;;;;;;5079466;28;20189;-82
2021/07/26 07:56:48;;;;;;;27.10;15.23;;;22.40;99.90;;;;;;5058083;28;20313;-81
2021/07/26 07:59:13;;;;;;;35.70;16.90;;;21.90;99.90;;;;;;5074827;28;20649;-82
2021/07/26 08:01:40;;;;;;;34.92;17.10;;;21.50;99.90;;;;;;5076260;28;20205;-81
2021/07/26 08:04:06;;;;;;;27.42;17.60;;;21.20;99.90;;;;;;5075472;28;20228;-81
2021/07/26 08:06:32;;;;;;;35.30;18.70;;;20.80;99.90;;;;;;5068533;28;20175;-83
2021/07/26 08:08:57;;;;;;;32.30;19.38;;;20.40;99.90;;;;;;5058639;28;20489;-80
2021/07/26 08:11:23;;;;;;;37.97;18.27;;;20.20;99.90;;;;;;5058797;28;20162;-81
2021/07/26 08:13:49;;;;;;;38.03;19.00;;;20.10;99.90;;;;;;5058468;28;20234;-80
2021/07/26 08:16:14;;;;;;;30.13;17.83;;;20.30;99.90;;;;;;5082333;28;20196;-84
2021/07/26 08:18:40;;;;;;;30.90;17.25;;;20.60;99.90;;;;;;5097998;28;20172;-83
2021/07/26 08:21:06;;;;;;;27.42;16.25;;;21.10;99.90;;;;;;5063357;28;20172;-83
2021/07/26 08:23:31;;;;;;;28.63;16.02;;;21.40;99.90;;;;;;5079755;28;20170;-82
2021/07/26 08:25:57;;;;;;;25.05;15.93;;;21.70;99.90;;;;;;5059524;28;20179;-84
2021/07/26 08:28:23;;;;;;;18.92;13.88;;;21.70;99.90;;;;;;5058597;28;20167;-83
2021/07/26 08:30:48;;;;;;;22.25;13.85;;;21.80;99.90;;;;;;5041430;28;20584;-84
2021/07/26 08:33:14;;;;;;;26.27;13.27;;;21.80;99.90;;;;;;5058450;28;20163;-83
2021/07/26 08:35:40;;;;;;;22.55;13.70;;;21.80;99.90;;;;;;5058748;28;20202;-82
2021/07/26 08:38:06;;;;;;;25.30;13.55;;;21.90;99.90;;;;;;5076448;28;20181;-79
2021/07/26 08:40:33;;;;;;;24.25;14.80;;;21.60;99.90;;;;;;5097068;28;20169;-79
2021/07/26 08:43:07;;;;;;;23.02;13.30;;;21.60;99.90;;;;;;5069928;28;20162;-80
2021/07/26 08:45:34;;;;;;;29.70;14.57;;;21.70;99.90;;;;;;5089768;28;20154;-78
2021/07/26 08:48:04;;;;;;;31.95;14.23;;;21.80;99.90;;;;;;5095934;28;20166;-79
2021/07/26 08:50:32;;;;;;;19.02;12.95;;;21.90;99.90;;;;;;5080174;28;20280;-78
2021/07/26 08:52:58;;;;;;;22.50;13.77;;;21.80;99.90;;;;;;5075720;28;20683;-78
2021/07/26 08:55:26;;;;;;;25.25;13.50;;;21.40;99.90;;;;;;5077368;28;20272;-78
2021/07/26 08:57:51;;;;;;;35.55;15.25;;;21.20;99.90;;;;;;5090993;28;20189;-78
2021/07/26 09:00:19;;;;;;;28.40;15.80;;;21.10;99.90;;;;;;5096099;28;20158;-79
2021/07/26 09:02:45;;;;;;;24.90;15.50;;;21.40;99.90;;;;;;5096019;28;20166;-78
2021/07/26 09:05:12;;;;;;;32.10;15.48;;;21.50;99.90;;;;;;5076954;28;20661;-79
2021/07/26 09:07:42;;;;;;;30.35;16.38;;;21.40;99.90;;;;;;5085734;28;20209;-82
2021/07/26 09:10:18;;;;;;;23.45;16.13;;;21.10;99.90;;;;;;5075182;28;20582;-80
2021/07/26 09:12:44;;;;;;;34.10;16.88;;;21.00;99.90;;;;;;5075132;28;20155;-79
2021/07/26 09:15:31;;;;;;;27.75;17.15;;;20.80;99.90;;;;;;5075559;28;20241;-80
2021/07/26 09:18:02;;;;;;;21.98;15.85;;;21.00;99.90;;;;;;5086887;28;20201;-79
2021/07/26 09:20:29;;;;;;;24.50;14.57;;;23.30;99.90;;;;;;5095341;28;20154;-79
2021/07/26 09:23:14;;;;;;;21.42;14.13;;;25.00;99.90;;;;;;5077226;28;20175;-79
2021/07/26 09:25:45;;;;;;;13.63;12.05;;;26.00;99.90;;;;;;5072932;28;20216;-86
2021/07/26 09:28:20;;;;;;;25.27;11.30;;;26.50;99.90;;;;;;5087744;28;20238;-79
2021/07/26 09:30:51;;;;;;;17.67;11.43;;;27.90;99.90;;;;;;5095422;28;20168;-79
2021/07/26 09:33:19;;;;;;;17.30;11.35;;;28.50;99.90;;;;;;5076978;28;20155;-81
2021/07/26 09:35:45;;;;;;;12.27;11.07;;;28.80;99.90;;;;;;5073303;28;20284;-77
2021/07/26 09:38:11;;;;;;;17.48;10.60;;;28.00;99.90;;;;;;5069690;28;20182;-79
2021/07/26 09:40:37;;;;;;;13.45;9.13;;;26.60;99.90;;;;;;5094688;28;20162;-81
2021/07/26 09:43:24;;;;;;;17.85;10.32;;;26.90;99.90;;;;;;5076442;28;20574;-79
2021/07/26 09:45:51;;;;;;;13.10;9.45;;;27.00;99.90;;;;;;5094653;28;20169;-81
2021/07/26 09:48:18;;;;;;;13.45;9.07;;;28.60;99.90;;;;;;5065692;28;20216;-80
2021/07/26 09:50:44;;;;;;;13.90;9.05;;;29.50;99.90;;;;;;5094735;28;20174;-80
2021/07/26 09:53:21;;;;;;;12.88;8.65;;;29.70;99.90;;;;;;5094682;28;20162;-81
2021/07/26 09:55:51;;;;;;;13.93;7.82;;;30.70;99.90;;;;;;5077573;28;20201;-80
2021/07/26 09:58:18;;;;;;;15.27;7.18;;;33.30;99.90;;;;;;5084148;28;20185;-79
2021/07/26 10:00:45;;;;;;;11.77;6.80;;;34.70;99.90;;;;;;5074300;28;20628;-82
2021/07/26 10:03:14;;;;;;;7.30;6.65;;;34.80;99.90;;;;;;5071707;28;20182;-81
2021/07/26 10:05:41;;;;;;;10.93;7.60;;;34.50;99.90;;;;;;5076261;28;20567;-80
2021/07/26 10:08:07;;;;;;;7.18;6.47;;;34.10;99.90;;;;;;5084300;28;20166;-82
2021/07/26 10:10:34;;;;;;;8.55;6.53;;;32.20;99.90;;;;;;5073775;28;20657;-80
2021/07/26 10:13:01;;;;;;;9.77;5.97;;;31.40;99.90;;;;;;5073884;28;20166;-81
2021/07/26 10:15:29;;;;;;;6.75;5.93;;;32.00;99.90;;;;;;5039274;28;20549;-80
2021/07/26 10:17:54;;;;;;;6.95;6.05;;;31.50;99.90;;;;;;5077430;28;20633;-80
2021/07/26 10:20:23;;;;;;;11.45;6.00;;;31.80;99.90;;;;;;5039436;28;20186;-82
2021/07/26 10:22:58;;;;;;;11.55;5.18;;;31.00;99.90;;;;;;5073554;28;20627;-81
2021/07/26 10:25:47;;;;;;;9.43;5.90;;;30.10;99.90;;;;;;5059376;28;20211;-81
2021/07/26 10:28:24;;;;;;;8.88;5.00;;;30.00;99.90;;;;;;5083958;28;20167;-80
2021/07/26 10:30:50;;;;;;;7.32;4.63;;;29.90;99.90;;;;;;5056964;28;20202;-81
2021/07/26 10:33:16;;;;;;;12.52;5.65;;;31.10;99.90;;;;;;5076193;28;20220;-80
2021/07/26 10:35:53;;;;;;;11.85;5.43;;;33.00;99.90;;;;;;5088795;28;20205;-79
2021/07/26 10:38:47;;;;;;;5.50;4.50;;;33.70;99.90;;;;;;5083439;28;20174;-82
2021/07/26 10:41:42;;;;;;;7.60;5.55;;;32.80;99.90;;;;;;5088048;28;20644;-82
2021/07/26 10:44:08;;;;;;;8.63;4.68;;;31.40;99.90;;;;;;5089849;28;20543;-80
2021/07/26 10:46:53;;;;;;;10.63;5.20;;;31.50;99.90;;;;;;5055568;28;20175;-79
2021/07/26 10:49:39;;;;;;;9.63;6.20;;;31.10;99.90;;;;;;5078181;28;20185;-82
2021/07/26 10:52:04;;;;;;;10.57;5.03;;;30.70;99.90;;;;;;5024541;28;20182;-79
2021/07/26 10:54:32;;;;;;;20.92;5.53;;;31.00;99.90;;;;;;5069030;28;20259;-80
2021/07/26 10:57:01;;;;;;;7.82;5.18;;;32.40;99.90;;;;;;5088237;28;20534;-82
2021/07/26 10:59:27;;;;;;;7.07;4.32;;;32.70;99.90;;;;;;5073449;28;20210;-80
2021/07/26 11:02:01;;;;;;;10.23;4.57;;;32.50;99.90;;;;;;5093017;28;20612;-81
2021/07/26 11:04:32;;;;;;;5.10;4.60;;;32.50;99.90;;;;;;5064468;28;20181;-78
2021/07/26 11:07:05;;;;;;;6.00;4.53;;;32.50;99.90;;;;;;5072332;28;20625;-80
2021/07/26 11:09:38;;;;;;;5.15;4.60;;;34.10;99.90;;;;;;5055264;28;20609;-82
2021/07/26 11:12:04;;;;;;;5.82;4.70;;;34.50;99.90;;;;;;5073421;28;20231;-82
2021/07/26 11:14:29;;;;;;;7.78;4.50;;;35.20;99.90;;;;;;5065822;28;20581;-82
2021/07/26 11:17:07;;;;;;;6.63;4.43;;;33.70;99.90;;;;;;5075006;28;20726;-83
2021/07/26 11:19:46;;;;;;;6.30;4.60;;;31.60;99.90;;;;;;5092867;28;20685;-81
2021/07/26 11:22:14;;;;;;;5.55;4.97;;;30.40;99.90;;;;;;5079924;28;20630;-82
2021/07/26 11:24:48;;;;;;;15.93;6.07;;;29.60;99.90;;;;;;5066425;28;20185;-81
2021/07/26 11:27:16;;;;;;;4.93;4.47;;;29.50;99.90;;;;;;5092980;28;20608;-82
2021/07/26 11:29:48;;;;;;;4.75;4.38;;;29.10;99.90;;;;;;5093216;28;20166;-82
2021/07/26 11:32:18;;;;;;;6.72;4.60;;;28.00;99.90;;;;;;5082878;28;20163;-82
2021/07/26 11:34:44;;;;;;;6.57;4.70;;;27.20;99.90;;;;;;5085214;28;20287;-81
2021/07/26 11:37:13;;;;;;;7.82;5.18;;;26.60;99.90;;;;;;5058378;28;20166;-81
2021/07/26 11:40:07;;;;;;;6.50;5.00;;;26.20;99.90;;;;;;5093365;28;20251;-83
2021/07/26 11:42:34;;;;;;;7.30;5.32;;;26.10;99.90;;;;;;5070759;28;20196;-81
2021/07/26 11:45:03;;;;;;;16.45;6.82;;;26.30;99.90;;;;;;5079195;28;20186;-80
2021/07/26 11:47:53;;;;;;;14.13;6.47;;;26.60;99.90;;;;;;5072982;28;20189;-81
2021/07/26 11:50:20;;;;;;;10.48;6.57;;;26.80;99.90;;;;;;5075975;28;20181;-81
2021/07/26 11:52:57;;;;;;;7.72;6.45;;;28.70;99.90;;;;;;5072773;28;20240;-81
2021/07/26 11:55:29;;;;;;;9.05;6.10;;;29.80;99.90;;;;;;5074690;28;20202;-83
2021/07/26 11:57:58;;;;;;;10.52;6.30;;;28.40;99.90;;;;;;5084503;28;20194;-81
2021/07/26 12:00:29;;;;;;;6.65;5.53;;;27.10;99.90;;;;;;5038329;28;20175;-80
2021/07/26 12:02:56;;;;;;;9.82;4.97;;;26.50;99.90;;;;;;5056394;28;20170;-80
2021/07/26 12:05:29;;;;;;;8.48;6.45;;;25.80;99.90;;;;;;5087804;28;20224;-78
2021/07/26 12:07:56;;;;;;;7.53;6.07;;;25.40;99.90;;;;;;5074889;28;20192;-79
2021/07/26 12:10:35;;;;;;;8.88;5.43;;;24.90;99.90;;;;;;5093020;28;20166;-80
2021/07/26 12:13:15;;;;;;;7.05;6.35;;;24.40;99.90;;;;;;5092115;28;20176;-79
2021/07/26 12:15:42;;;;;;;8.93;6.75;;;24.10;99.90;;;;;;5083649;28;20195;-79
2021/07/26 12:18:10;;;;;;;6.32;5.82;;;23.80;99.90;;;;;;5057205;28;20663;-79
2021/07/26 12:20:37;;;;;;;8.73;6.55;;;24.00;99.90;;;;;;5076028;28;20601;-79
2021/07/26 12:23:17;;;;;;;7.63;6.97;;;24.00;99.90;;;;;;5076016;28;20171;-79
2021/07/26 12:25:47;;;;;;;7.90;6.90;;;24.30;99.90;;;;;;5090961;28;20208;-81
2021/07/26 12:28:17;;;;;;;6.68;6.07;;;24.60;99.90;;;;;;5081821;28;20167;-80
2021/07/26 12:30:45;;;;;;;8.63;6.53;;;24.90;99.90;;;;;;5095967;28;20638;-78
2021/07/26 12:33:24;;;;;;;6.75;5.68;;;25.20;99.90;;;;;;5084627;28;20499;-79
2021/07/26 12:35:50;;;;;;;13.30;7.28;;;25.40;99.90;;;;;;5058784;28;20259;-79
2021/07/26 12:38:20;;;;;;;11.82;7.20;;;25.50;99.90;;;;;;5041546;28;20608;-80
2021/07/26 12:40:49;;;;;;;12.75;7.57;;;25.50;99.90;;;;;;5058038;28;20166;-80
2021/07/26 12:43:19;;;;;;;8.02;7.15;;;25.90;99.90;;;;;;5057934;28;20163;-79